createdAt,value
2018-09-11T00:01:32.869Z,51.80
2018-09-11T00:03:35.757Z,51.70
2018-09-11T00:05:38.645Z,51.80
2018-09-11T00:07:43.071Z,51.90
2018-09-11T00:09:45.933Z,51.80
2018-09-11T00:11:49.020Z,51.80
2018-09-11T00:13:51.905Z,51.90
2018-09-11T00:15:54.780Z,51.90
2018-09-11T00:17:57.815Z,51.80
2018-09-11T00:20:00.758Z,51.90
2018-09-11T00:22:03.641Z,52.00
2018-09-11T00:24:06.541Z,52.00
2018-09-11T00:26:10.206Z,52.20
2018-09-11T00:28:13.104Z,52.10
2018-09-11T00:30:16.018Z,52.10
2018-09-11T00:32:18.900Z,52.20
2018-09-11T00:34:21.790Z,52.30
2018-09-11T00:36:24.696Z,52.30
2018-09-11T00:38:27.569Z,52.40
2018-09-11T00:40:30.453Z,52.40
2018-09-11T00:42:33.473Z,52.40
2018-09-11T00:44:36.360Z,52.50
2018-09-11T00:46:39.224Z,52.50
2018-09-11T00:48:42.121Z,52.60
2018-09-11T00:50:45.773Z,52.90
2018-09-11T00:52:48.644Z,52.60
2018-09-11T00:54:51.565Z,52.70
2018-09-11T00:56:54.495Z,52.70
2018-09-11T00:58:58.125Z,52.80
2018-09-11T01:01:01.173Z,52.70
2018-09-11T01:03:04.133Z,52.80
2018-09-11T01:05:07.835Z,52.90
2018-09-11T01:07:11.578Z,52.90
2018-09-11T01:09:14.508Z,52.90
2018-09-11T01:11:17.437Z,53.00
2018-09-11T01:13:20.422Z,53.00
2018-09-11T01:15:23.395Z,53.10
2018-09-11T01:17:26.337Z,53.20
2018-09-11T01:19:29.322Z,53.20
2018-09-11T01:21:33.774Z,53.40
2018-09-11T01:23:37.491Z,53.40
2018-09-11T01:25:40.574Z,53.40
2018-09-11T01:27:43.493Z,53.40
2018-09-11T01:29:46.526Z,53.40
2018-09-11T01:31:50.238Z,53.60
2018-09-11T01:33:53.169Z,53.50
2018-09-11T01:35:56.111Z,53.60
2018-09-11T01:37:59.149Z,53.60
2018-09-11T01:40:02.175Z,53.60
2018-09-11T01:42:05.085Z,53.60
2018-09-11T01:44:08.055Z,53.60
2018-09-11T01:46:10.974Z,53.70
2018-09-11T01:48:13.985Z,53.80
2018-09-11T01:50:17.073Z,53.80
2018-09-11T01:52:20.869Z,53.80
2018-09-11T01:54:24.572Z,53.90
2018-09-11T01:56:28.294Z,53.90
2018-09-11T01:58:31.218Z,53.80
2018-09-11T02:00:34.955Z,54.00
2018-09-11T02:02:38.681Z,54.00
2018-09-11T02:04:41.610Z,54.00
2018-09-11T02:06:44.534Z,54.10
2018-09-11T02:08:47.497Z,54.10
2018-09-11T02:10:51.179Z,54.40
2018-09-11T02:12:54.128Z,54.30
2018-09-11T02:14:57.125Z,54.30
2018-09-11T02:17:00.149Z,54.30
2018-09-11T02:19:03.826Z,54.50
2018-09-11T02:21:06.864Z,54.40
2018-09-11T02:23:09.793Z,54.50
2018-09-11T02:25:12.723Z,54.60
2018-09-11T02:27:15.780Z,54.70
2018-09-11T02:29:19.481Z,54.80
2018-09-11T02:31:23.159Z,54.90
2018-09-11T02:33:26.983Z,54.90
2018-09-11T02:35:30.682Z,54.90
2018-09-11T02:37:34.486Z,54.90
2018-09-11T02:39:38.211Z,55.10
2018-09-11T02:41:41.158Z,55.10
2018-09-11T02:43:44.849Z,55.20
2018-09-11T02:45:49.313Z,55.30
2018-09-11T02:47:52.243Z,55.20
2018-09-11T02:49:56.693Z,55.50
2018-09-11T02:52:00.498Z,55.50
2018-09-11T02:54:04.190Z,55.70
2018-09-11T02:56:08.546Z,55.70
2018-09-11T02:58:11.610Z,55.60
2018-09-11T03:00:14.570Z,55.60
2018-09-11T03:02:18.254Z,55.90
2018-09-11T03:04:22.816Z,56.00
2018-09-11T03:06:25.875Z,56.10
2018-09-11T03:08:29.570Z,56.30
2018-09-11T03:10:33.285Z,56.40
2018-09-11T03:12:36.239Z,56.40
2018-09-11T03:14:39.929Z,56.50
2018-09-11T03:16:42.986Z,56.50
2018-09-11T03:18:45.951Z,56.60
2018-09-11T03:20:48.862Z,56.60
2018-09-11T03:22:51.904Z,56.60
2018-09-11T03:24:54.797Z,56.50
2018-09-11T03:26:57.719Z,56.50
2018-09-11T03:29:00.849Z,56.60
2018-09-11T03:31:03.789Z,56.60
2018-09-11T03:33:06.904Z,56.60
2018-09-11T03:35:10.625Z,56.80
2018-09-11T03:37:13.558Z,56.70
2018-09-11T03:39:16.502Z,56.70
2018-09-11T03:41:19.563Z,56.70
2018-09-11T03:43:22.638Z,56.70
2018-09-11T03:45:26.361Z,56.70
2018-09-11T03:47:29.425Z,56.60
2018-09-11T03:49:33.124Z,56.80
2018-09-11T03:51:36.849Z,56.80
2018-09-11T03:53:39.807Z,56.80
2018-09-11T03:55:58.561Z,56.80
2018-09-11T03:58:34.427Z,56.80
2018-09-11T04:03:03.850Z,56.70
2018-09-11T04:05:06.773Z,57.10
2018-09-11T04:07:09.699Z,56.90
2018-09-11T04:09:12.985Z,56.90
2018-09-11T04:11:16.713Z,57.30
2018-09-11T04:13:19.637Z,57.20
2018-09-11T04:15:22.594Z,57.40
2018-09-11T04:17:25.567Z,57.60
2018-09-11T04:19:28.489Z,57.80
2018-09-11T04:21:31.548Z,57.90
2018-09-11T04:23:34.581Z,57.90
2018-09-11T04:25:38.273Z,57.90
2018-09-11T04:27:42.083Z,57.90
2018-09-11T04:29:45.778Z,57.90
2018-09-11T04:31:49.594Z,57.90
2018-09-11T04:33:52.685Z,57.80
2018-09-11T04:35:55.614Z,57.80
2018-09-11T04:37:58.555Z,57.80
2018-09-11T04:40:01.650Z,57.90
2018-09-11T04:42:04.587Z,57.90
2018-09-11T04:44:08.321Z,58.50
2018-09-11T04:46:11.406Z,57.90
2018-09-11T04:48:14.337Z,58.10
2018-09-11T04:50:17.276Z,58.10
2018-09-11T04:52:20.320Z,58.20
2018-09-11T04:54:24.139Z,58.40
2018-09-11T04:56:27.079Z,58.30
2018-09-11T04:58:30.209Z,58.30
2018-09-11T05:00:33.942Z,58.40
2018-09-11T05:02:36.866Z,58.40
2018-09-11T05:04:40.815Z,58.40
2018-09-11T05:06:44.510Z,58.50
2018-09-11T05:08:48.198Z,58.50
2018-09-11T05:10:51.968Z,58.50
2018-09-11T05:12:54.900Z,58.50
2018-09-11T05:14:57.837Z,58.50
2018-09-11T05:17:00.960Z,58.50
2018-09-11T05:19:03.902Z,58.60
2018-09-11T05:21:06.843Z,58.60
2018-09-11T05:23:09.802Z,58.70
2018-09-11T05:25:12.730Z,58.70
2018-09-11T05:27:15.666Z,58.70
2018-09-11T05:29:18.713Z,58.80
2018-09-11T05:31:21.654Z,58.80
2018-09-11T05:33:24.578Z,58.90
2018-09-11T05:35:27.528Z,58.90
2018-09-11T05:37:30.448Z,59.00
2018-09-11T05:39:33.581Z,59.10
2018-09-11T05:41:36.746Z,59.10
2018-09-11T05:43:40.546Z,59.30
2018-09-11T05:45:44.358Z,59.30
2018-09-11T05:47:47.327Z,59.20
2018-09-11T05:49:51.033Z,59.40
2018-09-11T05:51:54.743Z,59.40
2018-09-11T05:53:58.997Z,59.40
2018-09-11T05:56:02.705Z,59.40
2018-09-11T05:58:05.730Z,59.40
2018-09-11T06:00:09.550Z,59.60
2018-09-11T06:02:12.482Z,59.40
2018-09-11T06:04:15.425Z,59.60
2018-09-11T06:06:18.538Z,59.70
2018-09-11T06:08:21.475Z,59.70
2018-09-11T06:10:24.461Z,59.80
2018-09-11T06:12:27.419Z,59.80
2018-09-11T06:14:31.133Z,60.00
2018-09-11T06:16:34.825Z,60.00
2018-09-11T06:18:37.859Z,60.00
2018-09-11T06:20:40.890Z,60.10
2018-09-11T06:22:44.597Z,60.30
2018-09-11T06:24:48.346Z,60.20
2018-09-11T06:26:51.296Z,60.90
2018-09-11T06:28:54.216Z,60.10
2018-09-11T06:30:57.173Z,60.00
2018-09-11T06:33:00.106Z,59.90
2018-09-11T06:35:03.801Z,59.40
2018-09-11T06:37:07.650Z,59.30
2018-09-11T06:39:13.173Z,59.70
2018-09-11T06:41:16.955Z,59.60
2018-09-11T06:43:19.988Z,59.50
2018-09-11T06:45:22.907Z,59.40
2018-09-11T06:47:26.622Z,59.40
2018-09-11T06:49:30.366Z,59.30
2018-09-11T06:51:33.301Z,59.30
2018-09-11T06:53:37.025Z,59.20
2018-09-11T06:55:40.108Z,59.20
2018-09-11T06:57:43.833Z,59.10
2018-09-11T06:59:46.893Z,59.10
2018-09-11T07:01:50.720Z,59.00
2018-09-11T07:03:53.638Z,58.90
2018-09-11T07:05:56.562Z,58.90
2018-09-11T07:08:00.464Z,58.80
2018-09-11T07:10:04.164Z,58.80
2018-09-11T07:12:07.971Z,58.60
2018-09-11T07:14:10.918Z,58.50
2018-09-11T07:16:13.852Z,58.50
2018-09-11T07:18:16.786Z,58.50
2018-09-11T07:20:20.056Z,58.50
2018-09-11T07:22:22.692Z,58.60
2018-09-11T07:24:25.646Z,58.70
2018-09-11T07:26:29.389Z,59.40
2018-09-11T07:28:32.314Z,58.70
2018-09-11T07:30:35.326Z,58.70
2018-09-11T07:32:39.026Z,58.60
2018-09-11T07:34:42.828Z,58.50
2018-09-11T07:36:46.521Z,58.50
2018-09-11T07:38:50.330Z,58.40
2018-09-11T07:40:54.221Z,58.80
2018-09-11T07:42:57.147Z,58.20
2018-09-11T07:45:00.123Z,57.90
2018-09-11T07:47:03.055Z,58.00
2018-09-11T07:49:06.064Z,57.90
2018-09-11T07:51:09.787Z,57.70
2018-09-11T07:53:12.714Z,57.70
2018-09-11T07:55:15.732Z,57.60
2018-09-11T07:57:19.588Z,57.20
2018-09-11T07:59:22.532Z,57.10
2018-09-11T08:01:25.462Z,56.90
2018-09-11T08:03:28.436Z,56.80
2018-09-11T08:05:31.469Z,56.70
2018-09-11T08:07:35.183Z,56.70
2018-09-11T08:09:38.217Z,57.30
2018-09-11T08:11:41.095Z,56.70
2018-09-11T08:13:44.114Z,56.60
2018-09-11T08:15:47.930Z,56.30
2018-09-11T08:17:51.059Z,56.20
2018-09-11T08:19:54.033Z,56.20
2018-09-11T08:21:56.977Z,56.10
2018-09-11T08:23:59.922Z,56.00
2018-09-11T08:26:04.346Z,55.60
2018-09-11T08:28:08.170Z,56.20
2018-09-11T08:30:11.849Z,55.60
2018-09-11T08:32:14.870Z,55.50
2018-09-11T08:34:17.814Z,55.40
2018-09-11T08:36:20.734Z,55.30
2018-09-11T08:38:23.658Z,55.10
2018-09-11T08:40:26.719Z,55.10
2018-09-11T08:42:29.670Z,55.00
2018-09-11T08:44:33.354Z,55.00
2018-09-11T08:46:37.141Z,54.90
2018-09-11T08:48:40.026Z,54.80
2018-09-11T08:50:42.947Z,54.80
2018-09-11T08:52:45.953Z,54.50
2018-09-11T08:54:48.849Z,54.30
2018-09-11T08:56:51.879Z,54.10
2018-09-11T08:58:56.337Z,53.90
2018-09-11T09:00:59.248Z,53.90
2018-09-11T09:03:02.230Z,53.80
2018-09-11T09:05:05.186Z,53.80
2018-09-11T09:07:08.123Z,53.70
2018-09-11T09:09:11.927Z,53.60
2018-09-11T09:11:15.734Z,53.30
2018-09-11T09:13:19.439Z,53.10
2018-09-11T09:15:22.378Z,53.10
2018-09-11T09:17:25.445Z,53.10
2018-09-11T09:19:28.370Z,52.90
2018-09-11T09:21:32.058Z,52.90
2018-09-11T09:23:35.038Z,52.80
2018-09-11T09:25:37.970Z,52.60
2018-09-11T09:27:41.133Z,52.50
2018-09-11T09:29:44.163Z,52.30
2018-09-11T09:31:47.062Z,52.00
2018-09-11T09:33:49.995Z,51.60
2018-09-11T09:35:53.030Z,51.30
2018-09-11T09:37:55.959Z,51.10
2018-09-11T09:39:58.878Z,50.90
2018-09-11T09:42:01.929Z,50.60
2018-09-11T09:44:04.885Z,50.40
2018-09-11T09:46:07.802Z,50.30
2018-09-11T09:48:10.863Z,50.10
2018-09-11T09:50:14.659Z,49.80
2018-09-11T09:52:17.665Z,49.80
2018-09-11T09:54:20.730Z,49.80
2018-09-11T09:56:23.663Z,49.80
2018-09-11T09:58:26.587Z,49.70
2018-09-11T10:00:29.595Z,49.60
2018-09-11T10:02:32.556Z,49.60
2018-09-11T10:04:36.237Z,49.40
2018-09-11T10:06:39.215Z,49.40
2018-09-11T10:08:42.135Z,49.40
2018-09-11T10:10:45.056Z,49.20
2018-09-11T10:12:48.015Z,49.20
2018-09-11T10:14:50.954Z,49.10
2018-09-11T10:16:54.645Z,49.00
2018-09-11T10:18:57.599Z,48.90
2018-09-11T10:21:00.522Z,48.80
2018-09-11T10:23:04.215Z,48.70
2018-09-11T10:25:08.034Z,48.80
2018-09-11T10:27:11.723Z,48.50
2018-09-11T10:29:14.650Z,48.40
2018-09-11T10:31:17.594Z,48.30
2018-09-11T10:33:21.386Z,48.50
2018-09-11T10:35:24.306Z,47.80
2018-09-11T10:37:27.299Z,47.70
2018-09-11T10:39:30.238Z,47.50
2018-09-11T10:41:33.146Z,47.50
2018-09-11T10:43:36.085Z,47.70
2018-09-11T10:45:39.035Z,47.70
2018-09-11T10:47:41.982Z,47.60
2018-09-11T10:49:45.710Z,47.60
2018-09-11T10:51:48.700Z,47.40
2018-09-11T10:53:51.603Z,47.30
2018-09-11T10:55:54.842Z,47.00
2018-09-11T10:57:57.767Z,46.90
2018-09-11T11:00:00.702Z,46.90
2018-09-11T11:02:04.435Z,46.40
2018-09-11T11:04:07.376Z,46.40
2018-09-11T11:06:10.326Z,46.20
2018-09-11T11:08:13.294Z,46.00
2018-09-11T11:10:16.266Z,45.70
2018-09-11T11:12:19.183Z,45.40
2018-09-11T11:14:22.290Z,45.20
2018-09-11T11:16:26.092Z,45.70
2018-09-11T11:18:29.768Z,45.00
2018-09-11T11:20:32.718Z,44.90
2018-09-11T11:22:35.760Z,44.70
2018-09-11T11:24:39.442Z,44.60
2018-09-11T11:26:43.264Z,44.50
2018-09-11T11:28:46.943Z,44.60
2018-09-11T11:30:50.665Z,44.50
2018-09-11T11:32:54.380Z,44.30
2018-09-11T11:34:57.316Z,44.20
2018-09-11T11:37:00.427Z,44.20
2018-09-11T11:39:04.062Z,44.00
2018-09-11T11:41:07.003Z,43.90
2018-09-11T11:43:10.815Z,43.80
2018-09-11T11:45:14.526Z,43.70
2018-09-11T11:47:17.451Z,43.60
2018-09-11T11:49:20.375Z,43.50
2018-09-11T11:51:24.177Z,43.00
2018-09-11T11:53:27.873Z,42.90
2018-09-11T11:55:31.049Z,42.70
2018-09-11T11:57:33.947Z,42.60
2018-09-11T11:59:37.631Z,42.50
2018-09-11T12:01:41.326Z,43.00
2018-09-11T12:03:44.454Z,42.20
2018-09-11T12:05:47.377Z,41.80
2018-09-11T12:07:51.861Z,41.80
2018-09-11T12:09:55.019Z,41.50
2018-09-11T12:11:58.704Z,41.30
2018-09-11T12:14:02.522Z,41.20
2018-09-11T12:16:06.277Z,41.50
2018-09-11T12:18:09.224Z,40.90
2018-09-11T12:20:12.146Z,40.50
2018-09-11T12:22:15.173Z,40.00
2018-09-11T12:24:18.975Z,39.60
2018-09-11T12:26:22.700Z,39.40
2018-09-11T12:28:25.663Z,39.30
2018-09-11T12:30:29.385Z,39.10
2018-09-11T12:32:32.305Z,39.00
2018-09-11T12:34:35.355Z,39.10
2018-09-11T12:36:39.133Z,38.80
2018-09-11T12:38:42.062Z,38.70
2018-09-11T12:40:45.034Z,38.50
2018-09-11T12:42:48.072Z,38.40
2018-09-11T12:44:51.762Z,38.00
2018-09-11T12:46:55.050Z,38.00
2018-09-11T12:48:57.766Z,38.00
2018-09-11T12:51:00.674Z,37.90
2018-09-11T12:53:03.622Z,37.80
2018-09-11T12:55:06.579Z,37.50
2018-09-11T12:57:10.266Z,37.20
2018-09-11T12:59:14.003Z,37.50
2018-09-11T13:01:16.946Z,37.10
2018-09-11T13:03:20.645Z,37.60
2018-09-11T13:05:24.572Z,37.00
2018-09-11T13:07:28.274Z,36.40
2018-09-11T13:09:32.017Z,36.90
2018-09-11T13:11:34.937Z,36.80
2018-09-11T13:13:38.620Z,36.90
2018-09-11T13:15:41.552Z,36.10
2018-09-11T13:17:45.370Z,35.60
2018-09-11T13:19:48.306Z,35.50
2018-09-11T13:21:51.222Z,35.30
2018-09-11T13:23:54.389Z,35.00
2018-09-11T13:25:58.065Z,35.10
2018-09-11T13:28:01.010Z,34.60
2018-09-11T13:30:03.974Z,34.50
2018-09-11T13:32:06.915Z,34.30
2018-09-11T13:34:09.848Z,34.40
2018-09-11T13:36:12.898Z,34.30
2018-09-11T13:38:16.593Z,34.50
2018-09-11T13:40:19.506Z,34.40
2018-09-11T13:42:22.465Z,34.40
2018-09-11T13:44:26.172Z,34.40
2018-09-11T13:46:29.129Z,34.20
2018-09-11T13:48:32.086Z,34.10
2018-09-11T13:50:35.018Z,33.90
2018-09-11T13:52:37.962Z,33.70
2018-09-11T13:54:41.000Z,33.70
2018-09-11T13:56:43.924Z,33.60
2018-09-11T13:58:46.958Z,33.50
2018-09-11T14:00:50.693Z,33.20
2018-09-11T14:02:53.611Z,33.20
2018-09-11T14:04:58.146Z,32.80
2018-09-11T14:07:01.878Z,32.70
2018-09-11T14:09:04.861Z,33.30
2018-09-11T14:11:07.778Z,32.60
2018-09-11T14:13:10.745Z,32.30
2018-09-11T14:15:13.678Z,31.70
2018-09-11T14:17:16.610Z,31.50
2018-09-11T14:19:19.570Z,31.60
2018-09-11T14:21:22.516Z,31.50
2018-09-11T14:23:26.209Z,31.60
2018-09-11T14:25:30.038Z,32.10
2018-09-11T14:27:32.965Z,31.40
2018-09-11T14:29:35.940Z,31.30
2018-09-11T14:31:38.899Z,31.00
2018-09-11T14:33:41.810Z,30.80
2018-09-11T14:35:44.758Z,30.70
2018-09-11T14:37:47.823Z,30.70
2018-09-11T14:39:52.338Z,30.80
2018-09-11T14:41:56.022Z,30.80
2018-09-11T14:43:59.943Z,30.70
2018-09-11T14:46:03.636Z,30.50
2018-09-11T14:48:07.344Z,30.50
2018-09-11T14:50:11.067Z,30.50
2018-09-11T14:52:13.992Z,30.30
2018-09-11T14:54:16.919Z,30.40
2018-09-11T14:56:19.874Z,30.50
2018-09-11T14:58:23.558Z,30.60
2018-09-11T15:00:26.567Z,30.50
2018-09-11T15:02:30.399Z,30.50
2018-09-11T15:04:33.328Z,30.60
2018-09-11T15:06:36.254Z,30.60
2018-09-11T15:08:39.387Z,30.50
2018-09-11T15:10:42.328Z,30.40
2018-09-11T15:12:45.261Z,30.40
2018-09-11T15:14:48.217Z,30.30
2018-09-11T15:16:51.146Z,30.20
2018-09-11T15:18:54.825Z,30.20
2018-09-11T15:20:57.970Z,30.10
2018-09-11T15:23:00.894Z,30.10
2018-09-11T15:25:03.811Z,30.10
2018-09-11T15:27:06.892Z,30.10
2018-09-11T15:29:09.823Z,30.00
2018-09-11T15:31:12.734Z,30.10
2018-09-11T15:33:15.702Z,30.20
2018-09-11T15:35:18.623Z,30.10
2018-09-11T15:37:22.306Z,30.10
2018-09-11T15:39:26.118Z,30.10
2018-09-11T15:41:29.803Z,30.10
2018-09-11T15:43:33.498Z,30.00
2018-09-11T15:45:36.450Z,29.90
2018-09-11T15:47:39.369Z,29.80
2018-09-11T15:49:43.058Z,29.90
2018-09-11T15:51:46.016Z,29.90
2018-09-11T15:53:49.047Z,29.90
2018-09-11T15:55:52.757Z,29.60
2018-09-11T15:57:58.386Z,30.00
2018-09-11T16:00:02.106Z,30.20
2018-09-11T16:02:05.026Z,30.10
2018-09-11T16:04:08.013Z,30.20
2018-09-11T16:06:10.942Z,30.20
2018-09-11T16:08:14.629Z,30.20
2018-09-11T16:10:18.389Z,30.20
2018-09-11T16:12:21.306Z,30.20
2018-09-11T16:14:24.288Z,30.30
2018-09-11T16:16:27.246Z,30.30
2018-09-11T16:18:30.272Z,30.30
2018-09-11T16:20:34.039Z,30.30
2018-09-11T16:22:37.138Z,30.30
2018-09-11T16:24:40.553Z,30.20
2018-09-11T16:26:43.523Z,30.20
2018-09-11T16:28:46.471Z,30.10
2018-09-11T16:30:49.402Z,30.00
2018-09-11T16:32:53.207Z,30.00
2018-09-11T16:34:56.930Z,30.00
2018-09-11T16:36:59.874Z,30.00
2018-09-11T16:39:03.559Z,30.00
2018-09-11T16:41:06.597Z,30.20
2018-09-11T16:43:09.517Z,30.30
2018-09-11T16:45:12.442Z,30.30
2018-09-11T16:47:15.517Z,30.30
2018-09-11T16:49:19.194Z,30.40
2018-09-11T16:51:22.199Z,30.30
2018-09-11T16:53:25.922Z,30.50
2018-09-11T16:55:28.846Z,30.40
2018-09-11T16:57:31.777Z,30.40
2018-09-11T16:59:34.722Z,30.50
2018-09-11T17:01:37.640Z,30.50
2018-09-11T17:03:42.198Z,30.60
2018-09-11T17:05:45.174Z,30.60
2018-09-11T17:07:48.220Z,30.70
2018-09-11T17:09:51.904Z,30.70
2018-09-11T17:11:55.650Z,30.80
2018-09-11T17:13:58.576Z,30.70
2018-09-11T17:16:01.517Z,30.80
2018-09-11T17:18:04.562Z,30.80
2018-09-11T17:20:08.287Z,30.80
2018-09-11T17:22:11.247Z,30.70
2018-09-11T17:24:14.962Z,31.00
2018-09-11T17:26:17.898Z,30.80
2018-09-11T17:28:20.829Z,30.90
2018-09-11T17:30:23.826Z,30.90
2018-09-11T17:32:26.742Z,30.90
2018-09-11T17:34:29.665Z,30.90
2018-09-11T17:36:32.624Z,31.00
2018-09-11T17:38:36.322Z,31.80
2018-09-11T17:40:40.018Z,31.30
2018-09-11T17:42:43.004Z,31.10
2018-09-11T17:44:46.718Z,31.20
2018-09-11T17:46:50.420Z,31.30
2018-09-11T17:48:54.224Z,31.30
2018-09-11T17:50:57.084Z,31.20
2018-09-11T17:53:00.124Z,31.30
2018-09-11T17:55:03.085Z,31.40
2018-09-11T17:57:05.996Z,31.50
2018-09-11T17:59:08.919Z,31.50
2018-09-11T18:01:11.878Z,31.60
2018-09-11T18:03:14.903Z,31.70
2018-09-11T18:05:17.834Z,31.80
2018-09-11T18:07:20.822Z,31.90
2018-09-11T18:09:23.739Z,31.90
2018-09-11T18:11:27.435Z,32.20
2018-09-11T18:13:31.160Z,32.20
2018-09-11T18:15:34.093Z,32.20
2018-09-11T18:17:37.056Z,32.20
2018-09-11T18:19:40.022Z,32.30
2018-09-11T18:21:42.942Z,32.50
2018-09-11T18:23:45.966Z,33.20
2018-09-11T18:25:49.705Z,32.90
2018-09-11T18:27:52.617Z,32.80
2018-09-11T18:29:55.537Z,32.90
2018-09-11T18:31:58.610Z,33.10
2018-09-11T18:34:02.308Z,33.50
2018-09-11T18:36:05.986Z,33.70
2018-09-11T18:38:09.710Z,33.90
2018-09-11T18:40:13.409Z,33.80
2018-09-11T18:42:17.108Z,34.00
2018-09-11T18:44:20.857Z,34.10
2018-09-11T18:46:23.858Z,34.00
2018-09-11T18:48:26.877Z,34.80
2018-09-11T18:50:30.594Z,34.40
2018-09-11T18:52:33.525Z,34.40
2018-09-11T18:54:36.447Z,34.60
2018-09-11T18:56:39.525Z,34.70
2018-09-11T18:58:43.225Z,35.20
2018-09-11T19:00:46.966Z,35.50
2018-09-11T19:02:49.925Z,35.40
2018-09-11T19:04:52.846Z,35.50
2018-09-11T19:06:55.763Z,35.70
2018-09-11T19:08:59.494Z,36.00
2018-09-11T19:11:02.482Z,35.90
2018-09-11T19:13:06.143Z,36.20
2018-09-11T19:15:09.957Z,36.30
2018-09-11T19:17:13.701Z,36.50
2018-09-11T19:19:16.902Z,36.50
2018-09-11T19:21:19.870Z,36.70
2018-09-11T19:23:22.794Z,36.70
2018-09-11T19:25:25.820Z,36.90
2018-09-11T19:27:28.763Z,37.00
2018-09-11T19:29:31.700Z,37.20
2018-09-11T19:31:34.619Z,37.30
2018-09-11T19:33:37.674Z,37.40
2018-09-11T19:35:40.590Z,37.50
2018-09-11T19:37:43.532Z,37.60
2018-09-11T19:39:46.498Z,37.80
2018-09-11T19:41:49.455Z,38.00
2018-09-11T19:43:53.156Z,38.30
2018-09-11T19:45:56.959Z,38.40
2018-09-11T19:47:59.898Z,38.30
2018-09-11T19:50:02.913Z,38.60
2018-09-11T19:52:05.834Z,38.80
2018-09-11T19:54:08.771Z,38.80
2018-09-11T19:56:11.723Z,38.90
2018-09-11T19:58:14.684Z,39.00
2018-09-11T20:00:17.590Z,39.10
2018-09-11T20:02:20.546Z,39.30
2018-09-11T20:04:24.273Z,39.60
2018-09-11T20:06:27.266Z,39.60
2018-09-11T20:08:30.227Z,39.70
2018-09-11T20:10:33.160Z,39.80
2018-09-11T20:12:36.963Z,39.90
2018-09-11T20:14:41.531Z,40.10
2018-09-11T20:16:44.452Z,40.10
2018-09-11T20:18:47.387Z,40.30
2018-09-11T20:20:50.347Z,40.50
2018-09-11T20:22:53.279Z,40.70
2018-09-11T20:24:56.246Z,40.80
2018-09-11T20:26:59.279Z,40.80
2018-09-11T20:29:02.974Z,40.90
2018-09-11T20:31:06.710Z,41.00
2018-09-11T20:33:09.630Z,40.80
2018-09-11T20:35:12.647Z,40.70
2018-09-11T20:37:16.362Z,40.80
2018-09-11T20:39:19.282Z,40.80
2018-09-11T20:41:22.214Z,40.90
2018-09-11T20:43:25.967Z,41.20
2018-09-11T20:45:28.995Z,41.10
2018-09-11T20:47:32.768Z,41.40
2018-09-11T20:49:35.726Z,41.30
2018-09-11T20:51:38.761Z,41.40
2018-09-11T20:53:42.462Z,42.40
2018-09-11T20:55:46.219Z,41.70
2018-09-11T20:57:49.145Z,41.70
2018-09-11T20:59:52.893Z,41.70
2018-09-11T21:01:55.818Z,41.70
2018-09-11T21:03:59.529Z,42.50
2018-09-11T21:06:03.346Z,41.80
2018-09-11T21:08:06.265Z,41.70
2018-09-11T21:10:09.296Z,41.70
2018-09-11T21:12:13.098Z,41.80
2018-09-11T21:14:16.794Z,41.80
2018-09-11T21:16:20.484Z,41.90
2018-09-11T21:18:24.231Z,42.00
2018-09-11T21:20:27.157Z,41.90
2018-09-11T21:22:30.085Z,42.00
2018-09-11T21:24:33.035Z,42.10
2018-09-11T21:26:36.727Z,42.30
2018-09-11T21:28:39.714Z,42.30
2018-09-11T21:30:42.658Z,42.40
2018-09-11T21:32:45.601Z,42.40
2018-09-11T21:34:48.693Z,42.40
2018-09-11T21:36:51.622Z,42.50
2018-09-11T21:38:54.643Z,42.50
2018-09-11T21:40:58.445Z,42.70
2018-09-11T21:43:02.130Z,42.80
2018-09-11T21:45:05.843Z,42.90
2018-09-11T21:47:09.562Z,43.00
2018-09-11T21:49:12.479Z,42.90
2018-09-11T21:51:15.408Z,42.90
2018-09-11T21:53:19.330Z,43.20
2018-09-11T21:55:22.258Z,43.10
2018-09-11T21:57:25.280Z,43.20
2018-09-11T21:59:29.026Z,43.30
2018-09-11T22:01:32.064Z,43.30
2018-09-11T22:03:35.766Z,43.50
2018-09-11T22:05:39.515Z,43.60
2018-09-11T22:07:43.982Z,43.50
2018-09-11T22:09:47.785Z,43.70
2018-09-11T22:11:51.470Z,43.60
2018-09-11T22:13:55.184Z,43.60
2018-09-11T22:15:58.913Z,43.70
2018-09-11T22:18:01.838Z,43.70
2018-09-11T22:20:04.764Z,43.80
2018-09-11T22:22:07.833Z,43.90
2018-09-11T22:24:11.509Z,44.20
2018-09-11T22:26:15.227Z,44.20
2018-09-11T22:28:18.955Z,44.30
2018-09-11T22:30:21.881Z,44.20
2018-09-11T22:32:24.814Z,44.20
2018-09-11T22:34:27.778Z,44.30
2018-09-11T22:36:31.587Z,44.40
2018-09-11T22:38:35.261Z,44.50
2018-09-11T22:40:38.206Z,44.40
2018-09-11T22:42:41.150Z,44.50
2018-09-11T22:44:44.191Z,44.60
2018-09-11T22:46:47.124Z,44.70
2018-09-11T22:48:50.062Z,44.60
2018-09-11T22:50:53.058Z,44.70
2018-09-11T22:52:56.751Z,45.60
2018-09-11T22:54:59.670Z,44.80
2018-09-11T22:57:02.622Z,44.90
2018-09-11T22:59:06.309Z,45.70
2018-09-11T23:01:09.324Z,45.10
2018-09-11T23:03:13.127Z,45.30
2018-09-11T23:05:16.929Z,45.30
2018-09-11T23:07:20.637Z,45.50
2018-09-11T23:09:24.329Z,45.50
2018-09-11T23:11:28.005Z,45.00
2018-09-11T23:13:31.217Z,45.50
2018-09-11T23:15:34.889Z,45.80
2018-09-11T23:17:37.813Z,46.40
2018-09-11T23:19:40.776Z,45.80
2018-09-11T23:21:44.466Z,46.00
2018-09-11T23:23:48.170Z,46.00
2018-09-11T23:25:51.219Z,45.90
2018-09-11T23:27:54.146Z,45.40
2018-09-11T23:29:57.947Z,46.10
2018-09-11T23:32:01.663Z,46.10
2018-09-11T23:34:04.583Z,46.00
2018-09-11T23:36:07.495Z,46.20
2018-09-11T23:38:10.541Z,46.30
2018-09-11T23:40:13.580Z,46.20
2018-09-11T23:42:17.258Z,46.40
2018-09-11T23:44:21.728Z,46.50
2018-09-11T23:46:24.643Z,46.40
2018-09-11T23:48:27.619Z,46.50
2018-09-11T23:50:30.584Z,46.60
2018-09-11T23:52:33.503Z,46.60
2018-09-11T23:54:36.466Z,46.60
2018-09-11T23:56:39.387Z,46.60
2018-09-11T23:58:43.070Z,46.60
